Rockport, WA (98283)

3:18 AM PDT on September 20, 2014 (GMT -0700)
Glacier View Internet | Change Station
CLOSE
Current Station
Personal Weather Station
Location: Darrington, WA
Elevation: 549 ft
Nearby Weather Stations

Elev 549 ft 48.25 °N, 121.61 °W | Updated 3 minutes ago

Partly Cloudy
Partly Cloudy
53.0 °F
Feels Like 53.0 °F
N
0.0
Wind Variable Wind from NNW
Gusts 0.0 mph

Today
High -- | Low -- °F
--% Chance of Precip.
Yesterday
High -- | Low -- °F
Precip. -- in
6:50 AM 7:07 PM
Waning Crescent, 13% visible
Pressure 30.13 in
Visibility 8.0 miles
Clouds Clear
Dew Point 52 °F
Humidity 97%
Rainfall 0.00 in
Snow Depth 0 in , 0 in , 0 in
UV 0.0 out of 12
Pollen .70 out of 12
PM2.5 Good
Flu Activity Not available.
METAR KAWO 200955Z AUTO 34003KT 8SM CLR 13/11 A3013 RMK AO1

More Conditions Fewer Conditions

Pressure 30.13 in
Visibility 8.0 miles
Clouds Clear
Dew Point 52 °F
Humidity 97%
Rainfall 0.00 in
Snow Depth 0 in , 0 in , 0 in
UV 0.0 out of 12
Pollen .70 out of 12
PM2.5 Good
Flu Activity Not available.
METAR KAWO 200955Z AUTO 34003KT 8SM CLR 13/11 A3013 RMK AO1

More Conditions Fewer Conditions

10-Day Weather Forecast

Almanac

Astronomy

Sep. 20, 2014 Rise Set
Actual Time 6:50 AM PDT 7:07 PM PDT
Civil Twilight 6:18 AM PDT 7:39 PM PDT
Nautical Twilight 5:41 AM PDT 8:16 PM PDT
Astronomical Twilight 5:03 AM PDT 8:54 PM PDT
Moon 3:21 AM PDT 5:24 PM PDT
Length of Visible Light 13h 20m
Length of Day
12h 17m
Tomorrow will be 3m 31s shorter.
Waning Crescent, 13% of the Moon is Illuminated
Today
Waning Crescent
Sep 24
New
Oct 1
First Quarter
Oct 8
Full
Oct 15
Last Quarter

Today's Extremes

State Highs State Lows

Community

WunderPhotos

Upload Photos

1,754,824 photos uploaded!

WunderBlogs® & News

Nearby

Air Quality

  Air Quality AQ Index Pollutant
Yesterday Good
PM2.5
Current Good
PM2.5
Saturday Good
PM2.5
Saturday Good
OZONE
Sunday Good
PM2.5
Sunday Good
OZONE
Monday Good
OZONE
Monday Good
PM2.5
Tuesday Good
OZONE
Tuesday Good
PM2.5

Snow Depth

Station Depth Elevation
Fish Lake 0 in 3371 ft
June Lake 0 in 3340 ft
Lost Horse 0 in 5000 ft
Quartz Peak 2 in 4700 ft
Potato Hill 0 in 4500 ft

Earthquake Activity

City Distance Mag. Time & Date
Seabeck, Washington 93 miles 4.0 3:06 AM PDT
2014-09-17
Minimum magnitude displayed is 2.5.

Coastal Water Temperatures

Place Temperature
No Stations Reporting

Nearby Weather Stations